createdAt,value
2023-03-31T00:00:11.961Z,51.93
2023-03-31T00:01:09.140Z,50.69
2023-03-31T00:02:13.789Z,50.50
2023-03-31T00:03:22.573Z,49.44
2023-03-31T00:04:24.022Z,49.03
2023-03-31T00:05:21.514Z,48.89
2023-03-31T00:06:18.965Z,48.28
2023-03-31T00:07:16.307Z,48.68
2023-03-31T00:08:14.110Z,49.24
2023-03-31T00:09:19.014Z,51.37
2023-03-31T00:10:19.435Z,50.48
2023-03-31T00:11:16.054Z,49.64
2023-03-31T00:12:14.258Z,48.35
2023-03-31T00:13:11.370Z,48.15
2023-03-31T00:14:08.716Z,48.14
2023-03-31T00:15:05.868Z,49.18
2023-03-31T00:16:06.066Z,48.86
2023-03-31T00:17:04.492Z,48.44
2023-03-31T00:18:02.419Z,48.32
2023-03-31T00:18:59.084Z,48.21
2023-03-31T00:20:00.502Z,48.41
2023-03-31T00:21:24.411Z,49.66
2023-03-31T00:22:27.405Z,49.81
2023-03-31T00:23:27.907Z,49.67
2023-03-31T00:24:24.511Z,49.45
2023-03-31T00:25:21.114Z,49.77
2023-03-31T00:26:17.715Z,50.71
2023-03-31T00:27:14.696Z,50.32
2023-03-31T00:28:11.238Z,49.44
2023-03-31T00:29:09.620Z,50.27
2023-03-31T00:30:06.940Z,49.71
2023-03-31T00:31:04.365Z,50.23
2023-03-31T00:32:01.110Z,49.90
2023-03-31T00:32:57.853Z,48.78
2023-03-31T00:33:54.544Z,49.87
2023-03-31T00:34:51.361Z,50.54
2023-03-31T00:35:51.953Z,49.87
2023-03-31T00:36:49.016Z,48.62
2023-03-31T00:37:45.969Z,49.03
2023-03-31T00:38:46.163Z,49.09
2023-03-31T00:39:43.360Z,48.62
2023-03-31T00:40:45.933Z,48.36
2023-03-31T00:41:42.469Z,48.17
2023-03-31T00:42:43.399Z,47.84
2023-03-31T00:43:40.877Z,49.67
2023-03-31T00:44:59.906Z,48.91
2023-03-31T00:46:22.335Z,49.60
2023-03-31T00:47:21.113Z,49.02
2023-03-31T00:48:19.807Z,49.40
2023-03-31T00:49:23.791Z,47.95
2023-03-31T00:50:23.503Z,47.42
2023-03-31T00:51:23.030Z,47.60
2023-03-31T00:52:22.891Z,47.62
2023-03-31T00:53:24.759Z,48.72
2023-03-31T00:54:26.539Z,48.78
2023-03-31T00:55:28.910Z,48.03
2023-03-31T00:56:28.913Z,47.98
2023-03-31T00:57:28.700Z,48.45
2023-03-31T00:58:28.955Z,48.29
2023-03-31T00:59:29.656Z,50.67
2023-03-31T01:00:26.302Z,51.13
2023-03-31T01:01:26.691Z,51.43
2023-03-31T01:02:25.771Z,52.32
2023-03-31T01:03:23.775Z,49.06
2023-03-31T01:04:22.823Z,48.77
2023-03-31T01:05:24.097Z,48.47
2023-03-31T01:06:20.923Z,50.10
2023-03-31T01:07:18.525Z,48.62
2023-03-31T01:08:17.139Z,49.63
2023-03-31T01:09:17.057Z,49.30
2023-03-31T01:10:14.489Z,49.31
2023-03-31T01:11:14.018Z,47.62
2023-03-31T01:12:11.116Z,47.61
2023-03-31T01:13:12.572Z,48.13
2023-03-31T01:14:10.638Z,48.08
2023-03-31T01:15:08.592Z,48.05
2023-03-31T01:16:05.488Z,48.07
2023-03-31T01:17:02.993Z,47.78
2023-03-31T01:18:01.060Z,47.98
2023-03-31T01:18:57.876Z,48.16
2023-03-31T01:20:18.347Z,48.30
2023-03-31T01:21:23.443Z,48.60
2023-03-31T01:22:28.785Z,47.97
2023-03-31T01:23:46.584Z,47.64
2023-03-31T01:25:14.196Z,48.35
2023-03-31T01:26:13.502Z,48.03
2023-03-31T01:27:38.947Z,48.47
2023-03-31T01:28:35.532Z,47.88
2023-03-31T01:30:06.907Z,48.26
2023-03-31T01:31:03.774Z,48.48
2023-03-31T01:32:32.344Z,48.53
2023-03-31T01:34:00.416Z,48.44
2023-03-31T01:35:15.166Z,48.26
2023-03-31T01:36:23.626Z,48.44
2023-03-31T01:37:21.274Z,48.83
2023-03-31T01:38:17.814Z,48.34
2023-03-31T01:39:20.358Z,48.31
2023-03-31T01:40:16.834Z,48.19
2023-03-31T01:41:31.917Z,47.93
2023-03-31T01:42:43.139Z,48.12
2023-03-31T01:44:19.567Z,48.96
2023-03-31T01:45:28.386Z,48.27
2023-03-31T01:46:34.030Z,47.99
2023-03-31T01:47:46.148Z,49.25
2023-03-31T01:49:01.906Z,48.66
2023-03-31T01:50:11.575Z,48.36
2023-03-31T01:51:17.830Z,48.54
2023-03-31T01:52:31.226Z,48.09
2023-03-31T01:53:54.927Z,48.65
2023-03-31T01:54:52.199Z,48.04
2023-03-31T01:56:08.138Z,47.94
2023-03-31T01:57:19.237Z,48.68
2023-03-31T01:58:22.917Z,48.59
2023-03-31T01:59:34.582Z,49.10
2023-03-31T02:00:37.249Z,50.22
2023-03-31T02:01:59.883Z,50.72
2023-03-31T02:03:04.268Z,53.10
2023-03-31T02:04:10.634Z,54.52
2023-03-31T02:05:12.273Z,55.77
2023-03-31T02:06:15.480Z,55.46
2023-03-31T02:07:27.705Z,55.50
2023-03-31T02:08:31.297Z,56.55
2023-03-31T02:09:35.263Z,57.91
2023-03-31T02:10:33.275Z,56.64
2023-03-31T02:11:33.479Z,56.39
2023-03-31T02:12:33.431Z,55.78
2023-03-31T02:13:34.320Z,55.76
2023-03-31T02:14:32.814Z,55.49
2023-03-31T02:15:35.144Z,56.78
2023-03-31T02:16:35.434Z,56.72
2023-03-31T02:17:33.048Z,56.70
2023-03-31T02:18:33.271Z,56.61
2023-03-31T02:19:34.399Z,56.87
2023-03-31T02:20:32.661Z,56.89
2023-03-31T02:21:36.246Z,56.70
2023-03-31T02:22:37.152Z,58.70
2023-03-31T02:23:37.786Z,59.19
2023-03-31T02:24:37.779Z,59.20
2023-03-31T02:25:46.442Z,59.24
2023-03-31T02:26:52.302Z,60.06
2023-03-31T02:28:04.094Z,60.63
2023-03-31T02:29:00.905Z,60.89
2023-03-31T02:29:58.015Z,61.24
2023-03-31T02:31:18.112Z,62.87
2023-03-31T02:32:29.962Z,64.31
2023-03-31T02:33:26.662Z,65.35
2023-03-31T02:34:23.737Z,66.12
2023-03-31T02:35:22.203Z,66.78
2023-03-31T02:36:19.407Z,67.09
2023-03-31T02:37:16.679Z,70.37
2023-03-31T02:38:13.414Z,70.39
2023-03-31T02:39:15.685Z,69.59
2023-03-31T02:40:21.761Z,69.95
2023-03-31T02:41:18.494Z,70.43
2023-03-31T02:42:16.177Z,69.92
2023-03-31T02:43:12.891Z,71.23
2023-03-31T02:44:11.422Z,71.20
2023-03-31T02:45:33.720Z,71.43
2023-03-31T02:46:32.481Z,73.17
2023-03-31T02:47:29.207Z,75.11
2023-03-31T02:48:34.133Z,73.93
2023-03-31T02:49:31.724Z,74.20
2023-03-31T02:50:38.641Z,75.52
2023-03-31T02:51:59.571Z,77.63
2023-03-31T02:53:24.383Z,78.15
2023-03-31T02:54:48.329Z,80.71
2023-03-31T02:56:02.319Z,80.63
2023-03-31T02:57:18.991Z,80.88
2023-03-31T02:58:41.200Z,81.62
2023-03-31T03:00:16.378Z,81.58
2023-03-31T03:01:36.693Z,82.10
2023-03-31T03:03:09.419Z,83.46
2023-03-31T03:04:09.600Z,83.33
2023-03-31T03:05:22.629Z,83.02
2023-03-31T03:06:32.537Z,83.53
2023-03-31T03:07:58.164Z,83.43
2023-03-31T03:09:12.951Z,82.65
2023-03-31T03:10:12.482Z,82.84
2023-03-31T03:11:31.276Z,83.56
2023-03-31T03:12:38.501Z,84.10
2023-03-31T03:13:39.249Z,84.17
2023-03-31T03:14:54.459Z,84.09
2023-03-31T03:16:03.987Z,84.97
2023-03-31T03:17:09.626Z,84.38
2023-03-31T03:18:06.744Z,83.77
2023-03-31T03:19:06.574Z,83.98
2023-03-31T03:20:08.418Z,84.65
2023-03-31T03:21:05.288Z,85.05
2023-03-31T03:22:02.043Z,84.66
2023-03-31T03:22:58.655Z,85.22
2023-03-31T03:23:55.816Z,85.32
2023-03-31T03:24:53.539Z,84.88
2023-03-31T03:25:51.202Z,85.26
2023-03-31T03:26:48.306Z,85.57
2023-03-31T03:27:44.938Z,85.77
2023-03-31T03:28:41.664Z,86.31
2023-03-31T03:29:38.310Z,86.71
2023-03-31T03:30:34.939Z,86.78
2023-03-31T03:31:33.689Z,85.88
2023-03-31T03:32:31.139Z,85.55
2023-03-31T03:33:27.767Z,85.63
2023-03-31T03:34:25.665Z,85.53
2023-03-31T03:35:22.351Z,85.64
2023-03-31T03:36:20.024Z,86.18
2023-03-31T03:37:16.754Z,85.31
2023-03-31T03:38:13.445Z,84.32
2023-03-31T03:39:10.066Z,84.07
2023-03-31T03:40:07.436Z,84.19
2023-03-31T03:41:04.628Z,83.95
2023-03-31T03:42:01.379Z,84.30
2023-03-31T03:42:58.036Z,83.90
2023-03-31T03:43:54.648Z,84.56
2023-03-31T03:44:51.259Z,85.06
2023-03-31T03:45:49.605Z,83.87
2023-03-31T03:46:46.207Z,83.61
2023-03-31T03:47:43.078Z,83.49
2023-03-31T03:48:39.744Z,81.98
2023-03-31T03:49:36.322Z,81.93
2023-03-31T03:50:36.331Z,81.28
2023-03-31T03:51:32.966Z,81.45
2023-03-31T03:52:29.856Z,81.90
2023-03-31T03:53:26.858Z,82.74
2023-03-31T03:54:23.459Z,82.70
2023-03-31T03:55:20.126Z,83.75
2023-03-31T03:56:16.868Z,83.16
2023-03-31T03:57:13.488Z,84.93
2023-03-31T03:58:10.269Z,84.93
2023-03-31T03:59:07.158Z,86.07
2023-03-31T04:00:09.983Z,86.69
2023-03-31T04:01:06.786Z,84.33
2023-03-31T04:02:03.677Z,85.01
2023-03-31T04:03:00.682Z,84.91
2023-03-31T04:03:57.438Z,83.98
2023-03-31T04:04:54.050Z,83.16
2023-03-31T04:05:50.944Z,83.64
2023-03-31T04:06:47.912Z,82.77
2023-03-31T04:07:44.635Z,81.53
2023-03-31T04:08:41.641Z,81.41
2023-03-31T04:09:38.338Z,82.99
2023-03-31T04:10:36.077Z,85.17
2023-03-31T04:11:32.867Z,86.11
2023-03-31T04:12:29.406Z,85.68
2023-03-31T04:13:26.094Z,83.28
2023-03-31T04:14:22.728Z,83.72
2023-03-31T04:15:19.294Z,84.21
2023-03-31T04:16:16.919Z,83.62
2023-03-31T04:17:16.050Z,84.05
2023-03-31T04:18:33.078Z,84.96
2023-03-31T04:19:29.865Z,84.71
2023-03-31T04:20:30.669Z,86.07
2023-03-31T04:21:27.341Z,86.55
2023-03-31T04:22:29.273Z,85.83
2023-03-31T04:23:26.729Z,85.59
2023-03-31T04:24:30.597Z,84.80
2023-03-31T04:25:30.822Z,85.54
2023-03-31T04:26:39.131Z,85.17
2023-03-31T04:27:36.211Z,85.15
2023-03-31T04:28:35.091Z,83.87
2023-03-31T04:29:33.750Z,81.16
2023-03-31T04:30:33.509Z,82.25
2023-03-31T04:31:30.927Z,83.89
2023-03-31T04:32:28.492Z,83.53
2023-03-31T04:33:25.084Z,83.81
2023-03-31T04:34:26.921Z,83.44
2023-03-31T04:35:26.340Z,81.27
2023-03-31T04:36:23.062Z,79.60
2023-03-31T04:37:19.796Z,79.42
2023-03-31T04:38:20.761Z,80.92
2023-03-31T04:39:26.664Z,81.95
2023-03-31T04:40:23.276Z,79.83
2023-03-31T04:41:20.355Z,79.99
2023-03-31T04:42:16.923Z,80.54
2023-03-31T04:43:13.866Z,81.59
2023-03-31T04:44:10.889Z,81.72
2023-03-31T04:45:08.016Z,81.91
2023-03-31T04:46:05.057Z,80.77
2023-03-31T04:47:03.265Z,80.33
2023-03-31T04:48:00.026Z,80.12
2023-03-31T04:48:57.154Z,80.92
2023-03-31T04:49:53.934Z,81.07
2023-03-31T04:50:50.561Z,80.87
2023-03-31T04:51:50.384Z,81.37
2023-03-31T04:52:46.957Z,81.45
2023-03-31T04:53:43.566Z,81.50
2023-03-31T04:54:40.491Z,81.55
2023-03-31T04:55:37.051Z,81.47
2023-03-31T04:56:34.174Z,81.69
2023-03-31T04:57:30.994Z,80.96
2023-03-31T04:58:27.645Z,80.49
2023-03-31T04:59:24.238Z,79.89
2023-03-31T05:00:21.663Z,80.03
2023-03-31T05:01:18.416Z,80.19
2023-03-31T05:02:23.642Z,80.28
2023-03-31T05:03:21.945Z,80.64
2023-03-31T05:04:18.634Z,80.59
2023-03-31T05:05:15.595Z,80.33
2023-03-31T05:06:12.343Z,80.31
2023-03-31T05:07:08.951Z,79.83
2023-03-31T05:08:05.807Z,79.07
2023-03-31T05:09:02.444Z,79.54
2023-03-31T05:09:59.037Z,78.61
2023-03-31T05:10:55.717Z,78.27
2023-03-31T05:11:52.396Z,78.75
2023-03-31T05:12:49.455Z,78.76
2023-03-31T05:13:46.751Z,79.30
2023-03-31T05:14:43.462Z,79.03
2023-03-31T05:15:40.368Z,80.38
2023-03-31T05:16:37.174Z,78.40
2023-03-31T05:17:35.736Z,77.29
2023-03-31T05:18:32.347Z,78.07
2023-03-31T05:19:28.931Z,78.59
2023-03-31T05:20:25.494Z,78.22
2023-03-31T05:21:22.225Z,78.77
2023-03-31T05:22:20.805Z,77.62
2023-03-31T05:23:17.532Z,76.59
2023-03-31T05:24:14.150Z,76.25
2023-03-31T05:25:11.933Z,74.61
2023-03-31T05:26:09.335Z,74.49
2023-03-31T05:27:06.025Z,73.71
2023-03-31T05:28:03.091Z,74.28
2023-03-31T05:28:59.742Z,73.69
2023-03-31T05:29:56.555Z,73.79
2023-03-31T05:30:53.203Z,74.51
2023-03-31T05:31:50.272Z,73.94
2023-03-31T05:32:46.909Z,72.71
2023-03-31T05:33:43.542Z,72.13
2023-03-31T05:34:40.188Z,71.80
2023-03-31T05:35:36.990Z,71.19
2023-03-31T05:36:33.669Z,71.88
2023-03-31T05:37:30.660Z,71.26
2023-03-31T05:38:31.813Z,71.67
2023-03-31T05:39:33.058Z,70.24
2023-03-31T05:40:29.701Z,69.29
2023-03-31T05:41:26.383Z,68.58
2023-03-31T05:42:23.138Z,68.53
2023-03-31T05:43:19.747Z,67.90
2023-03-31T05:44:16.398Z,68.61
2023-03-31T05:45:13.042Z,68.48
2023-03-31T05:46:09.929Z,68.27
2023-03-31T05:47:06.837Z,68.56
2023-03-31T05:48:03.682Z,67.96
2023-03-31T05:49:00.631Z,68.11
2023-03-31T05:49:57.169Z,67.39
2023-03-31T05:50:58.705Z,67.64
2023-03-31T05:51:56.281Z,67.57
2023-03-31T05:52:52.992Z,67.71
2023-03-31T05:53:49.640Z,67.57
2023-03-31T05:54:46.308Z,67.40
2023-03-31T05:55:42.881Z,67.33
2023-03-31T05:56:39.808Z,66.35
2023-03-31T05:57:36.489Z,67.20
2023-03-31T05:58:36.204Z,66.64
2023-03-31T05:59:35.143Z,66.40
2023-03-31T06:00:32.053Z,65.79
2023-03-31T06:01:30.191Z,65.95
2023-03-31T06:02:27.093Z,65.58
2023-03-31T06:03:23.808Z,66.27
2023-03-31T06:04:20.509Z,65.92
2023-03-31T06:05:17.169Z,66.10
2023-03-31T06:06:15.067Z,66.04
2023-03-31T06:07:11.717Z,64.88
2023-03-31T06:08:08.376Z,64.44
2023-03-31T06:09:06.487Z,63.20
2023-03-31T06:10:03.281Z,64.03
2023-03-31T06:11:00.397Z,64.17
2023-03-31T06:11:57.144Z,64.90
2023-03-31T06:12:53.824Z,64.76
2023-03-31T06:13:50.514Z,64.11
2023-03-31T06:14:47.565Z,63.61
2023-03-31T06:15:44.304Z,63.60
2023-03-31T06:16:41.186Z,64.95
2023-03-31T06:17:38.847Z,63.71
2023-03-31T06:18:36.772Z,62.59
2023-03-31T06:19:33.472Z,63.74
2023-03-31T06:20:30.074Z,63.96
2023-03-31T06:21:26.788Z,64.46
2023-03-31T06:22:23.929Z,62.49
2023-03-31T06:23:21.352Z,62.08
2023-03-31T06:24:18.097Z,61.57
2023-03-31T06:25:14.824Z,62.08
2023-03-31T06:26:22.756Z,62.13
2023-03-31T06:27:19.351Z,61.42
2023-03-31T06:28:15.988Z,61.66
2023-03-31T06:29:12.579Z,61.26
2023-03-31T06:30:09.683Z,61.25
2023-03-31T06:31:08.698Z,61.30
2023-03-31T06:32:05.703Z,61.89
2023-03-31T06:33:02.444Z,61.51
2023-03-31T06:33:59.121Z,61.72
2023-03-31T06:34:55.805Z,62.12
2023-03-31T06:35:56.238Z,61.84
2023-03-31T06:36:53.515Z,61.67
2023-03-31T06:37:50.436Z,61.12
2023-03-31T06:38:48.054Z,59.37
2023-03-31T06:39:44.814Z,59.81
2023-03-31T06:40:42.634Z,60.96
2023-03-31T06:41:39.271Z,60.21
2023-03-31T06:42:35.930Z,60.53
2023-03-31T06:43:33.050Z,61.09
2023-03-31T06:44:29.630Z,60.47
2023-03-31T06:45:26.206Z,59.37
2023-03-31T06:46:22.923Z,59.76
2023-03-31T06:47:19.687Z,59.39
2023-03-31T06:48:16.345Z,58.90
2023-03-31T06:49:13.181Z,59.78
2023-03-31T06:50:10.510Z,58.97
2023-03-31T06:51:08.114Z,59.70
2023-03-31T06:52:05.117Z,60.18
2023-03-31T06:53:01.804Z,60.02
2023-03-31T06:53:58.426Z,59.78
2023-03-31T06:54:54.988Z,59.49
2023-03-31T06:55:52.027Z,59.60
2023-03-31T06:56:48.671Z,59.61
2023-03-31T06:57:45.231Z,59.88
2023-03-31T06:58:41.927Z,60.72
2023-03-31T06:59:38.520Z,59.26
2023-03-31T07:00:35.217Z,58.03
2023-03-31T07:01:31.900Z,57.46
2023-03-31T07:02:28.739Z,59.07
2023-03-31T07:03:26.272Z,57.30
2023-03-31T07:04:23.014Z,56.53
2023-03-31T07:05:26.642Z,57.17
2023-03-31T07:06:23.287Z,55.71
2023-03-31T07:07:19.876Z,54.80
2023-03-31T07:08:17.798Z,56.10
2023-03-31T07:09:14.435Z,55.01
2023-03-31T07:10:11.249Z,55.87
2023-03-31T07:11:08.160Z,56.32
2023-03-31T07:12:05.415Z,55.89
2023-03-31T07:13:03.683Z,56.44
2023-03-31T07:14:01.783Z,56.83
2023-03-31T07:14:58.481Z,56.80
2023-03-31T07:15:56.599Z,57.64
2023-03-31T07:16:53.362Z,57.91
2023-03-31T07:17:51.172Z,56.91
2023-03-31T07:18:47.923Z,56.96
2023-03-31T07:19:48.249Z,57.36
2023-03-31T07:20:48.826Z,57.23
2023-03-31T07:21:45.792Z,57.29
2023-03-31T07:22:43.702Z,57.64
2023-03-31T07:23:40.463Z,58.32
2023-03-31T07:24:37.105Z,58.34
2023-03-31T07:25:33.966Z,58.70
2023-03-31T07:26:30.540Z,58.79
2023-03-31T07:27:27.188Z,57.59
2023-03-31T07:28:23.852Z,57.62
2023-03-31T07:29:20.641Z,56.43
2023-03-31T07:30:19.744Z,56.83
2023-03-31T07:31:16.461Z,55.83
2023-03-31T07:32:13.202Z,55.11
2023-03-31T07:33:10.449Z,55.13
2023-03-31T07:34:07.250Z,54.40
2023-03-31T07:35:03.958Z,54.35
2023-03-31T07:36:12.750Z,52.02
2023-03-31T07:37:10.481Z,52.18
2023-03-31T07:38:11.646Z,53.79
2023-03-31T07:39:08.474Z,54.39
2023-03-31T07:40:06.411Z,52.89
2023-03-31T07:41:09.078Z,54.32
2023-03-31T07:42:06.413Z,52.58
2023-03-31T07:43:03.389Z,53.66
2023-03-31T07:44:00.258Z,53.11
2023-03-31T07:44:57.913Z,53.84
2023-03-31T07:45:54.614Z,53.03
2023-03-31T07:46:51.262Z,53.08
2023-03-31T07:47:48.167Z,53.36
2023-03-31T07:48:46.633Z,54.03
2023-03-31T07:49:43.310Z,53.00
2023-03-31T07:50:40.012Z,53.90
2023-03-31T07:51:36.618Z,53.64
2023-03-31T07:52:33.491Z,53.97
2023-03-31T07:53:30.093Z,54.51
2023-03-31T07:54:26.749Z,55.73
2023-03-31T07:55:24.027Z,55.07
2023-03-31T07:56:23.093Z,55.52
2023-03-31T07:57:19.947Z,54.66
2023-03-31T07:58:16.585Z,54.56
2023-03-31T07:59:13.208Z,54.20
2023-03-31T08:00:12.687Z,54.86
2023-03-31T08:01:09.791Z,55.23
2023-03-31T08:02:07.038Z,54.52
2023-03-31T08:03:03.957Z,54.13
2023-03-31T08:04:01.124Z,53.81
2023-03-31T08:04:57.796Z,53.88
2023-03-31T08:05:55.365Z,53.38
2023-03-31T08:06:52.520Z,54.05
2023-03-31T08:07:50.706Z,53.75
2023-03-31T08:08:48.099Z,53.45
2023-03-31T08:09:46.461Z,53.66
2023-03-31T08:10:43.127Z,53.84
2023-03-31T08:11:39.798Z,52.83
2023-03-31T08:12:36.574Z,53.02
2023-03-31T08:13:33.298Z,53.31
2023-03-31T08:14:40.743Z,53.26
2023-03-31T08:15:38.475Z,52.07
2023-03-31T08:16:35.139Z,52.18
2023-03-31T08:17:31.861Z,51.89
2023-03-31T08:18:29.792Z,52.41
2023-03-31T08:19:27.185Z,52.25
2023-03-31T08:20:23.944Z,53.66
2023-03-31T08:21:23.771Z,52.68
2023-03-31T08:22:23.275Z,52.63
2023-03-31T08:23:19.993Z,52.76
2023-03-31T08:24:16.661Z,51.94
2023-03-31T08:25:13.284Z,51.85
2023-03-31T08:26:18.089Z,51.22
2023-03-31T08:27:14.936Z,51.13
2023-03-31T08:28:14.128Z,51.00
2023-03-31T08:29:10.847Z,50.97
2023-03-31T08:30:09.783Z,51.29
2023-03-31T08:31:08.311Z,50.92
2023-03-31T08:32:05.353Z,50.79
2023-03-31T08:33:02.216Z,50.53
2023-03-31T08:33:59.080Z,49.96
2023-03-31T08:34:55.641Z,51.40
2023-03-31T08:35:52.327Z,50.03
2023-03-31T08:36:49.011Z,50.10
2023-03-31T08:37:45.899Z,50.55
2023-03-31T08:38:46.526Z,51.60
2023-03-31T08:39:43.191Z,50.16
2023-03-31T08:40:41.747Z,49.68
2023-03-31T08:41:57.247Z,51.49
2023-03-31T08:42:57.937Z,51.22
2023-03-31T08:43:57.687Z,50.89
2023-03-31T08:45:08.198Z,51.18
2023-03-31T08:46:05.261Z,51.94
2023-03-31T08:47:03.859Z,51.36
2023-03-31T08:48:25.914Z,51.49
2023-03-31T08:49:24.385Z,49.42
2023-03-31T08:50:25.572Z,49.98
2023-03-31T08:51:28.189Z,51.06
2023-03-31T08:52:30.941Z,50.26
2023-03-31T08:53:35.937Z,50.79
2023-03-31T08:54:42.345Z,51.33
2023-03-31T08:55:51.237Z,52.07
2023-03-31T08:56:50.748Z,51.27
2023-03-31T08:58:07.008Z,50.19
2023-03-31T08:59:03.941Z,50.37
2023-03-31T09:00:06.982Z,49.84
2023-03-31T09:01:06.692Z,48.72
2023-03-31T09:02:28.130Z,48.05
2023-03-31T09:03:36.073Z,48.23
2023-03-31T09:04:32.783Z,47.49
2023-03-31T09:05:49.454Z,48.20
2023-03-31T09:07:32.233Z,46.99
2023-03-31T09:08:33.799Z,44.78
2023-03-31T09:09:33.101Z,45.26
2023-03-31T09:10:47.265Z,45.33
2023-03-31T09:11:53.599Z,45.95
2023-03-31T09:13:01.601Z,45.50
2023-03-31T09:14:16.311Z,47.45
2023-03-31T09:15:40.479Z,46.85
2023-03-31T09:16:46.474Z,45.90
2023-03-31T09:17:48.918Z,46.84
2023-03-31T09:18:47.079Z,46.81
2023-03-31T09:19:59.005Z,46.79
2023-03-31T09:21:08.368Z,46.64
2023-03-31T09:22:33.097Z,47.18
2023-03-31T09:23:38.371Z,47.50
2023-03-31T09:24:47.607Z,46.42
2023-03-31T09:25:46.554Z,46.59
2023-03-31T09:26:49.364Z,46.87
2023-03-31T09:27:47.759Z,46.24
2023-03-31T09:28:45.641Z,46.62
2023-03-31T09:29:52.741Z,46.67
2023-03-31T09:30:50.452Z,46.90
2023-03-31T09:31:48.545Z,45.98
2023-03-31T09:32:48.313Z,46.22
2023-03-31T09:33:46.801Z,45.34
2023-03-31T09:34:44.652Z,44.73
2023-03-31T09:35:41.960Z,44.10
2023-03-31T09:36:39.545Z,43.80
2023-03-31T09:37:36.308Z,42.73
2023-03-31T09:38:33.083Z,44.29
2023-03-31T09:39:29.739Z,43.53
2023-03-31T09:40:29.107Z,43.91
2023-03-31T09:41:25.985Z,43.24
2023-03-31T09:42:22.596Z,43.38
2023-03-31T09:43:25.166Z,42.94
2023-03-31T09:44:24.856Z,43.08
2023-03-31T09:45:21.707Z,43.08
2023-03-31T09:46:35.016Z,43.38
2023-03-31T09:47:40.438Z,42.73
2023-03-31T09:48:38.781Z,43.39
2023-03-31T09:49:37.156Z,43.04
2023-03-31T09:50:44.704Z,43.34
2023-03-31T09:51:49.028Z,42.65
2023-03-31T09:52:55.820Z,43.66
2023-03-31T09:54:01.688Z,43.66
2023-03-31T09:55:01.509Z,43.39
2023-03-31T09:56:03.165Z,42.99
2023-03-31T09:57:00.186Z,41.67
2023-03-31T09:57:59.950Z,43.67
2023-03-31T09:59:02.172Z,43.79
2023-03-31T10:00:07.795Z,43.37
2023-03-31T10:01:07.548Z,43.14
2023-03-31T10:02:35.157Z,41.74
2023-03-31T10:03:37.099Z,42.71
2023-03-31T10:04:35.229Z,42.46
2023-03-31T10:05:43.447Z,40.65
2023-03-31T10:06:42.307Z,41.02
2023-03-31T10:07:39.006Z,40.73
2023-03-31T10:09:01.396Z,40.89
2023-03-31T10:09:58.104Z,39.29
2023-03-31T10:11:11.357Z,40.10
2023-03-31T10:12:20.298Z,39.97
2023-03-31T10:13:20.999Z,39.68
2023-03-31T10:14:17.855Z,39.70
2023-03-31T10:15:27.660Z,41.49
2023-03-31T10:16:43.262Z,41.84
2023-03-31T10:17:54.891Z,41.58
2023-03-31T10:18:52.194Z,41.97
2023-03-31T10:19:51.921Z,42.52
2023-03-31T10:20:52.823Z,42.42
2023-03-31T10:21:57.289Z,42.01
2023-03-31T10:22:53.905Z,42.94
2023-03-31T10:23:51.519Z,43.16
2023-03-31T10:24:50.137Z,42.88
2023-03-31T10:25:47.782Z,42.09
2023-03-31T10:26:53.262Z,42.16
2023-03-31T10:27:56.687Z,44.06
2023-03-31T10:28:55.505Z,43.33
2023-03-31T10:29:58.074Z,43.32
2023-03-31T10:30:55.948Z,43.45
2023-03-31T10:31:52.942Z,43.04
2023-03-31T10:32:52.558Z,42.67
2023-03-31T10:33:52.212Z,42.31
2023-03-31T10:34:49.286Z,42.13
2023-03-31T10:35:50.418Z,41.77
2023-03-31T10:36:50.112Z,42.31
2023-03-31T10:37:48.675Z,41.46
2023-03-31T10:38:48.261Z,42.12
2023-03-31T10:39:47.234Z,41.70
2023-03-31T10:40:51.981Z,40.87
2023-03-31T10:41:53.125Z,41.04
2023-03-31T10:43:20.835Z,40.43
2023-03-31T10:44:43.455Z,40.55
2023-03-31T10:45:51.713Z,40.17
2023-03-31T10:46:50.205Z,39.24
2023-03-31T10:47:50.026Z,39.63
2023-03-31T10:48:51.335Z,40.52
2023-03-31T10:49:51.791Z,41.18
2023-03-31T10:50:48.685Z,41.25
2023-03-31T10:51:56.499Z,41.10
2023-03-31T10:52:53.262Z,40.55
2023-03-31T10:53:52.841Z,41.22
2023-03-31T10:54:57.311Z,42.43
2023-03-31T10:56:03.124Z,41.30
2023-03-31T10:57:03.570Z,41.37
2023-03-31T10:58:29.995Z,40.94
2023-03-31T10:59:37.710Z,40.92
2023-03-31T11:01:17.119Z,41.26
2023-03-31T11:02:39.324Z,41.30
2023-03-31T11:03:55.017Z,39.60
2023-03-31T11:05:25.491Z,39.89
2023-03-31T11:06:36.554Z,40.07
2023-03-31T11:07:33.615Z,40.14
2023-03-31T11:08:53.219Z,40.23
2023-03-31T11:10:08.249Z,41.80
2023-03-31T11:11:23.422Z,40.32
2023-03-31T11:12:27.646Z,41.36
2023-03-31T11:13:59.375Z,40.24
2023-03-31T11:15:19.665Z,40.82
2023-03-31T11:16:32.851Z,40.38
2023-03-31T11:17:48.279Z,41.41
2023-03-31T11:18:54.321Z,41.30
2023-03-31T11:20:17.309Z,41.51
2023-03-31T11:21:48.050Z,42.56
2023-03-31T11:22:59.921Z,42.06
2023-03-31T11:24:26.377Z,42.39
2023-03-31T11:25:35.660Z,42.35
2023-03-31T11:26:56.124Z,43.39
2023-03-31T11:28:06.912Z,42.34
2023-03-31T11:29:34.301Z,43.22
2023-03-31T11:30:40.037Z,42.85
2023-03-31T11:31:58.036Z,43.14
2023-03-31T11:33:28.706Z,43.78
2023-03-31T11:34:53.315Z,43.64
2023-03-31T11:36:04.522Z,42.99
2023-03-31T11:37:11.920Z,42.62
2023-03-31T11:38:24.717Z,41.83
2023-03-31T11:39:42.966Z,40.98
2023-03-31T11:40:58.844Z,42.67
2023-03-31T11:42:02.113Z,41.48
2023-03-31T11:43:21.877Z,42.27
2023-03-31T11:44:20.924Z,42.61
2023-03-31T11:45:53.414Z,42.38
2023-03-31T11:47:03.409Z,42.77
2023-03-31T11:48:07.515Z,42.30
2023-03-31T11:49:11.918Z,42.76
2023-03-31T11:50:16.472Z,43.11
2023-03-31T11:51:48.507Z,41.69
2023-03-31T11:53:09.990Z,41.45
2023-03-31T11:54:12.324Z,42.74
2023-03-31T11:55:15.608Z,41.82
2023-03-31T11:56:13.189Z,41.69
2023-03-31T11:57:19.788Z,42.13
2023-03-31T11:58:21.738Z,41.55
2023-03-31T11:59:21.530Z,41.60
2023-03-31T12:00:27.470Z,41.47
2023-03-31T12:01:27.731Z,41.57
2023-03-31T12:02:48.634Z,40.50
2023-03-31T12:04:13.319Z,41.01
2023-03-31T12:05:12.878Z,41.43
2023-03-31T12:06:19.986Z,40.99
2023-03-31T12:07:52.012Z,41.03
2023-03-31T12:09:04.449Z,41.47
2023-03-31T12:10:13.028Z,41.43
2023-03-31T12:11:16.407Z,42.05
2023-03-31T12:12:18.761Z,41.16
2023-03-31T12:13:40.145Z,42.30
2023-03-31T12:14:42.949Z,42.20
2023-03-31T12:15:42.808Z,42.32
2023-03-31T12:16:46.313Z,41.83
2023-03-31T12:17:47.869Z,41.55
2023-03-31T12:19:27.958Z,42.36
2023-03-31T12:20:33.390Z,42.41
2023-03-31T12:21:32.653Z,42.34
2023-03-31T12:22:38.924Z,41.06
2023-03-31T12:23:43.145Z,41.58
2023-03-31T12:24:39.906Z,41.21
2023-03-31T12:25:48.057Z,40.96
2023-03-31T12:27:09.491Z,40.68
2023-03-31T12:28:06.684Z,41.23
2023-03-31T12:29:11.233Z,41.47
2023-03-31T12:30:42.351Z,41.48
2023-03-31T12:31:41.825Z,43.25
2023-03-31T12:32:42.617Z,40.55
2023-03-31T12:33:43.723Z,41.98
2023-03-31T12:34:49.031Z,41.22
2023-03-31T12:36:04.461Z,41.22
2023-03-31T12:37:10.072Z,42.40
2023-03-31T12:38:28.286Z,41.91
2023-03-31T12:39:27.706Z,42.33
2023-03-31T12:40:32.376Z,41.72
2023-03-31T12:41:43.928Z,42.01
2023-03-31T12:43:11.425Z,41.71
2023-03-31T12:44:16.739Z,41.66
2023-03-31T12:45:39.332Z,41.26
2023-03-31T12:46:35.943Z,42.30
2023-03-31T12:47:40.556Z,43.06
2023-03-31T12:48:55.648Z,42.50
2023-03-31T12:50:04.480Z,43.52
2023-03-31T12:51:40.030Z,42.89
2023-03-31T12:52:46.376Z,43.20
2023-03-31T12:53:51.716Z,43.16
2023-03-31T12:55:11.346Z,41.33
2023-03-31T12:56:08.708Z,41.87
2023-03-31T12:57:16.952Z,42.04
2023-03-31T12:58:33.232Z,42.28
2023-03-31T12:59:36.595Z,41.83
2023-03-31T13:00:34.030Z,41.92
2023-03-31T13:01:30.975Z,42.06
2023-03-31T13:02:27.761Z,40.34
2023-03-31T13:03:45.592Z,41.77
2023-03-31T13:04:43.416Z,41.43
2023-03-31T13:05:49.794Z,41.90
2023-03-31T13:06:59.859Z,42.07
2023-03-31T13:07:56.651Z,41.32
2023-03-31T13:09:01.001Z,42.35
2023-03-31T13:09:59.855Z,42.06
2023-03-31T13:10:59.217Z,41.16
2023-03-31T13:11:56.103Z,41.70
2023-03-31T13:13:13.422Z,40.99
2023-03-31T13:14:23.556Z,40.93
2023-03-31T13:15:20.638Z,40.38
2023-03-31T13:16:21.181Z,40.65
2023-03-31T13:17:22.980Z,40.28
2023-03-31T13:18:21.880Z,40.26
2023-03-31T13:19:33.940Z,39.45
2023-03-31T13:20:35.939Z,39.66
2023-03-31T13:21:52.711Z,39.54
2023-03-31T13:22:49.474Z,39.68